createdAt,value
2016-11-21T00:00:44.666Z,0
2016-11-21T00:01:44.941Z,0
2016-11-21T00:02:44.581Z,0
2016-11-21T00:03:44.639Z,0
2016-11-21T00:04:44.954Z,0
2016-11-21T00:05:44.600Z,0
2016-11-21T00:06:45.466Z,0
2016-11-21T00:07:44.929Z,0
2016-11-21T00:08:44.666Z,0
2016-11-21T00:09:45.245Z,0
2016-11-21T00:10:45.304Z,0
2016-11-21T00:11:44.998Z,0
2016-11-21T00:12:44.696Z,0
2016-11-21T00:13:44.665Z,0
2016-11-21T00:14:44.964Z,0
2016-11-21T00:15:45.338Z,0
2016-11-21T00:16:45.033Z,0
2016-11-21T00:17:44.709Z,0
2016-11-21T00:18:44.367Z,0
2016-11-21T00:19:46.384Z,0
2016-11-21T00:20:44.694Z,0
2016-11-21T00:21:45.294Z,0
2016-11-21T00:22:45.021Z,0
2016-11-21T00:23:45.073Z,0
2016-11-21T00:24:44.399Z,0
2016-11-21T00:25:45.038Z,0
2016-11-21T00:26:45.044Z,0
2016-11-21T00:27:44.817Z,0
2016-11-21T00:28:44.735Z,0
2016-11-21T00:29:45.057Z,0
2016-11-21T00:30:46.440Z,0
2016-11-21T00:31:45.167Z,0
2016-11-21T00:32:44.849Z,0
2016-11-21T00:33:45.085Z,0
2016-11-21T00:34:45.088Z,0
2016-11-21T00:35:45.505Z,0
2016-11-21T00:36:45.150Z,0
2016-11-21T00:37:45.473Z,0
2016-11-21T00:38:45.413Z,0
2016-11-21T00:39:45.115Z,0
2016-11-21T00:40:45.483Z,0
2016-11-21T00:41:46.031Z,0
2016-11-21T00:42:45.460Z,0
2016-11-21T00:43:45.195Z,0
2016-11-21T00:44:44.899Z,0
2016-11-21T00:45:45.164Z,0
2016-11-21T00:46:44.895Z,0
2016-11-21T00:47:44.861Z,0
2016-11-21T00:48:45.222Z,0
2016-11-21T00:49:44.553Z,0
2016-11-21T00:50:44.872Z,0
2016-11-21T00:51:44.568Z,0
2016-11-21T00:52:45.746Z,0
2016-11-21T00:53:44.937Z,0
2016-11-21T00:54:45.267Z,0
2016-11-21T00:55:45.213Z,0
2016-11-21T00:56:45.545Z,0
2016-11-21T00:57:45.541Z,0
2016-11-21T00:58:45.287Z,0
2016-11-21T00:59:45.249Z,0
2016-11-21T01:00:45.296Z,0
2016-11-21T01:01:44.990Z,0
2016-11-21T01:02:44.944Z,0
2016-11-21T01:03:45.763Z,0
2016-11-21T01:04:45.323Z,0
2016-11-21T01:05:44.968Z,0
2016-11-21T01:06:44.973Z,0
2016-11-21T01:07:45.888Z,0
2016-11-21T01:08:45.659Z,0
2016-11-21T01:09:45.039Z,0
2016-11-21T01:10:45.305Z,0
2016-11-21T01:11:45.629Z,0
2016-11-21T01:12:45.634Z,0
2016-11-21T01:13:45.376Z,0
2016-11-21T01:14:45.330Z,0
2016-11-21T01:15:45.336Z,0
2016-11-21T01:16:46.893Z,0
2016-11-21T01:17:45.768Z,0
2016-11-21T01:18:45.356Z,0
2016-11-21T01:19:45.418Z,0
2016-11-21T01:20:45.368Z,0
2016-11-21T01:21:45.380Z,0
2016-11-21T01:22:45.073Z,0
2016-11-21T01:23:45.482Z,0
2016-11-21T01:24:45.499Z,0
2016-11-21T01:25:45.400Z,0
2016-11-21T01:26:45.963Z,0
2016-11-21T01:27:46.626Z,0
2016-11-21T01:28:45.117Z,0
2016-11-21T01:29:45.786Z,0
2016-11-21T01:30:45.167Z,0
2016-11-21T01:31:45.771Z,0
2016-11-21T01:32:45.178Z,0
2016-11-21T01:33:45.508Z,0
2016-11-21T01:34:45.454Z,0
2016-11-21T01:35:45.512Z,0
2016-11-21T01:36:45.162Z,0
2016-11-21T01:37:45.522Z,0
2016-11-21T01:38:46.589Z,0
2016-11-21T01:39:45.900Z,0
2016-11-21T01:40:45.178Z,0
2016-11-21T01:41:45.514Z,0
2016-11-21T01:42:45.196Z,0
2016-11-21T01:43:45.513Z,0
2016-11-21T01:44:44.891Z,0
2016-11-21T01:45:45.835Z,0
2016-11-21T01:46:45.939Z,0
2016-11-21T01:47:45.225Z,0
2016-11-21T01:48:45.849Z,0
2016-11-21T01:49:46.052Z,0
2016-11-21T01:50:45.557Z,0
2016-11-21T01:51:45.244Z,0
2016-11-21T01:52:45.882Z,0
2016-11-21T01:53:46.571Z,0
2016-11-21T01:54:45.893Z,0
2016-11-21T01:55:45.270Z,0
2016-11-21T01:56:45.619Z,0
2016-11-21T01:57:45.345Z,0
2016-11-21T01:58:45.602Z,0
2016-11-21T01:59:45.710Z,0
2016-11-21T02:00:46.301Z,0
2016-11-21T02:01:45.363Z,0
2016-11-21T02:02:45.148Z,0
2016-11-21T02:03:45.631Z,0
2016-11-21T02:04:46.852Z,0
2016-11-21T02:05:45.332Z,0
2016-11-21T02:06:45.396Z,0
2016-11-21T02:07:46.124Z,0
2016-11-21T02:08:45.976Z,0
2016-11-21T02:09:45.464Z,0
2016-11-21T02:10:45.460Z,0
2016-11-21T02:11:46.083Z,0
2016-11-21T02:12:45.427Z,0
2016-11-21T02:13:45.435Z,0
2016-11-21T02:14:45.129Z,0
2016-11-21T02:15:46.681Z,0
2016-11-21T02:16:46.038Z,0
2016-11-21T02:17:45.409Z,0
2016-11-21T02:18:45.462Z,0
2016-11-21T02:19:45.103Z,0
2016-11-21T02:20:45.838Z,0
2016-11-21T02:21:46.105Z,0
2016-11-21T02:22:45.439Z,0
2016-11-21T02:23:46.071Z,0
2016-11-21T02:24:45.497Z,0
2016-11-21T02:25:45.454Z,0
2016-11-21T02:26:46.531Z,0
2016-11-21T02:27:45.784Z,0
2016-11-21T02:28:46.102Z,0
2016-11-21T02:29:45.483Z,0
2016-11-21T02:30:45.848Z,0
2016-11-21T02:31:45.488Z,0
2016-11-21T02:32:45.499Z,0
2016-11-21T02:33:45.557Z,0
2016-11-21T02:34:45.511Z,0
2016-11-21T02:35:47.429Z,0
2016-11-21T02:36:46.250Z,0
2016-11-21T02:37:46.407Z,0
2016-11-21T02:38:46.171Z,0
2016-11-21T02:39:45.595Z,0
2016-11-21T02:40:46.225Z,0
2016-11-21T02:41:46.186Z,0
2016-11-21T02:42:45.873Z,0
2016-11-21T02:43:46.443Z,0
2016-11-21T02:45:15.015Z,0
2016-11-21T02:45:46.108Z,0
2016-11-21T02:46:47.360Z,0
2016-11-21T02:47:45.906Z,0
2016-11-21T02:48:45.904Z,0
2016-11-21T02:49:45.668Z,0
2016-11-21T02:50:45.661Z,0
2016-11-21T02:51:45.683Z,0
2016-11-21T02:52:45.992Z,0
2016-11-21T02:53:45.988Z,0
2016-11-21T02:54:46.256Z,0
2016-11-21T02:55:45.959Z,0
2016-11-21T02:56:46.109Z,0
2016-11-21T02:57:47.080Z,0
2016-11-21T02:58:46.022Z,0
2016-11-21T02:59:46.016Z,0
2016-11-21T03:00:46.037Z,0
2016-11-21T03:01:47.305Z,0
2016-11-21T03:02:46.436Z,0
2016-11-21T03:03:46.363Z,0
2016-11-21T03:04:46.058Z,0
2016-11-21T03:05:46.026Z,0
2016-11-21T03:06:46.334Z,0
2016-11-21T03:07:46.128Z,0
2016-11-21T03:08:46.132Z,0
2016-11-21T03:09:46.043Z,0
2016-11-21T03:10:46.098Z,0
2016-11-21T03:11:46.365Z,0
2016-11-21T03:12:46.828Z,0
2016-11-21T03:13:46.113Z,0
2016-11-21T03:14:46.121Z,0
2016-11-21T03:15:45.448Z,0
2016-11-21T03:16:45.773Z,0
2016-11-21T03:17:46.187Z,0
2016-11-21T03:18:46.406Z,0
2016-11-21T03:19:46.096Z,0
2016-11-21T03:20:46.159Z,0
2016-11-21T03:21:47.617Z,0
2016-11-21T03:22:46.493Z,0
2016-11-21T03:23:46.488Z,0
2016-11-21T03:24:45.866Z,0
2016-11-21T03:25:46.469Z,0
2016-11-21T03:26:45.519Z,0
2016-11-21T03:27:45.894Z,0
2016-11-21T03:28:45.843Z,0
2016-11-21T03:29:45.848Z,0
2016-11-21T03:30:46.173Z,0
2016-11-21T03:31:46.483Z,0
2016-11-21T03:32:46.934Z,0
2016-11-21T03:33:45.870Z,0
2016-11-21T03:34:46.248Z,0
2016-11-21T03:35:46.253Z,0
2016-11-21T03:36:47.010Z,0
2016-11-21T03:37:46.209Z,0
2016-11-21T03:38:46.221Z,0
2016-11-21T03:39:46.273Z,0
2016-11-21T03:40:45.970Z,0
2016-11-21T03:41:46.552Z,0
2016-11-21T03:42:46.242Z,0
2016-11-21T03:43:46.538Z,0
2016-11-21T03:44:46.250Z,0
2016-11-21T03:45:46.311Z,0
2016-11-21T03:46:45.691Z,0
2016-11-21T03:47:47.312Z,0
2016-11-21T03:48:46.331Z,0
2016-11-21T03:49:46.334Z,0
2016-11-21T03:50:45.981Z,0
2016-11-21T03:51:46.036Z,0
2016-11-21T03:52:46.616Z,0
2016-11-21T03:53:46.308Z,0
2016-11-21T03:54:45.692Z,0
2016-11-21T03:55:46.374Z,0
2016-11-21T03:56:46.403Z,0
2016-11-21T03:57:46.388Z,0
2016-11-21T03:58:47.262Z,0
2016-11-21T03:59:46.394Z,0
2016-11-21T04:00:46.097Z,0
2016-11-21T04:01:46.361Z,0
2016-11-21T04:02:46.414Z,0
2016-11-21T04:03:46.367Z,0
2016-11-21T04:04:46.114Z,0
2016-11-21T04:05:46.433Z,0
2016-11-21T04:06:46.128Z,0
2016-11-21T04:07:47.837Z,0
2016-11-21T04:08:46.401Z,0
2016-11-21T04:09:47.108Z,0
2016-11-21T04:10:46.465Z,0
2016-11-21T04:11:46.107Z,0
2016-11-21T04:12:45.904Z,0
2016-11-21T04:13:46.483Z,0
2016-11-21T04:15:01.320Z,0
2016-11-21T04:15:45.821Z,0
2016-11-21T04:16:46.862Z,0
2016-11-21T04:17:46.505Z,0
2016-11-21T04:18:47.439Z,0
2016-11-21T04:19:46.566Z,0
2016-11-21T04:20:46.515Z,0
2016-11-21T04:21:46.485Z,0
2016-11-21T04:22:46.487Z,0
2016-11-21T04:23:46.546Z,0
2016-11-21T04:24:45.870Z,0
2016-11-21T04:25:46.924Z,0
2016-11-21T04:26:46.512Z,0
2016-11-21T04:27:46.880Z,0
2016-11-21T04:28:46.521Z,0
2016-11-21T04:29:47.852Z,0
2016-11-21T04:30:46.223Z,0
2016-11-21T04:31:46.894Z,0
2016-11-21T04:32:46.860Z,0
2016-11-21T04:33:48.232Z,0
2016-11-21T04:34:46.247Z,0
2016-11-21T04:35:46.570Z,0
2016-11-21T04:36:46.942Z,0
2016-11-21T04:37:46.364Z,0
2016-11-21T04:38:46.272Z,0
2016-11-21T04:39:46.277Z,0
2016-11-21T04:40:46.335Z,0
2016-11-21T04:41:46.293Z,0
2016-11-21T04:42:46.928Z,0
2016-11-21T04:43:46.932Z,0
2016-11-21T04:44:47.892Z,0
2016-11-21T04:45:46.629Z,0
2016-11-21T04:46:46.686Z,0
2016-11-21T04:47:46.016Z,0
2016-11-21T04:48:46.965Z,0
2016-11-21T04:49:46.369Z,0
2016-11-21T04:50:46.709Z,0
2016-11-21T04:51:47.026Z,0
2016-11-21T04:52:46.986Z,0
2016-11-21T04:53:48.353Z,0
2016-11-21T04:54:46.681Z,0
2016-11-21T04:55:47.576Z,0
2016-11-21T04:56:46.461Z,0
2016-11-21T04:57:47.017Z,0
2016-11-21T04:58:46.181Z,0
2016-11-21T04:59:46.090Z,0
2016-11-21T05:00:46.728Z,0
2016-11-21T05:01:46.413Z,0
2016-11-21T05:02:46.109Z,0
2016-11-21T05:03:46.768Z,0
2016-11-21T05:04:46.118Z,0
2016-11-21T05:05:46.811Z,0
2016-11-21T05:06:47.258Z,0
2016-11-21T05:07:46.767Z,0
2016-11-21T05:08:46.238Z,0
2016-11-21T05:09:46.462Z,0
2016-11-21T05:10:47.098Z,0
2016-11-21T05:11:46.475Z,0
2016-11-21T05:12:46.792Z,0
2016-11-21T05:13:47.115Z,0
2016-11-21T05:14:46.859Z,0
2016-11-21T05:15:47.810Z,0
2016-11-21T05:16:46.869Z,0
2016-11-21T05:17:47.171Z,0
2016-11-21T05:18:46.830Z,0
2016-11-21T05:19:48.460Z,0
2016-11-21T05:20:46.729Z,0
2016-11-21T05:21:46.535Z,0
2016-11-21T05:22:46.295Z,0
2016-11-21T05:23:47.061Z,0
2016-11-21T05:24:46.864Z,0
2016-11-21T05:25:46.928Z,0
2016-11-21T05:26:46.877Z,0
2016-11-21T05:27:46.884Z,0
2016-11-21T05:28:46.890Z,0
2016-11-21T05:29:46.895Z,0
2016-11-21T05:30:47.887Z,0
2016-11-21T05:31:46.906Z,0
2016-11-21T05:32:46.916Z,0
2016-11-21T05:33:46.918Z,0
2016-11-21T05:34:46.301Z,0
2016-11-21T05:35:46.620Z,0
2016-11-21T05:36:46.989Z,0
2016-11-21T05:37:47.259Z,0
2016-11-21T05:38:46.644Z,0
2016-11-21T05:39:47.014Z,0
2016-11-21T05:40:47.279Z,0
2016-11-21T05:41:47.972Z,0
2016-11-21T05:42:47.004Z,0
2016-11-21T05:43:47.035Z,0
2016-11-21T05:44:46.763Z,0
2016-11-21T05:45:47.000Z,0
2016-11-21T05:46:46.999Z,0
2016-11-21T05:47:47.012Z,0
2016-11-21T05:48:47.063Z,0
2016-11-21T05:49:47.014Z,0
2016-11-21T05:50:47.052Z,0
2016-11-21T05:51:46.833Z,0
2016-11-21T05:52:47.533Z,0
2016-11-21T05:53:46.726Z,0
2016-11-21T05:54:48.391Z,0
2016-11-21T05:55:47.052Z,0
2016-11-21T05:56:47.065Z,0
2016-11-21T05:57:46.804Z,0
2016-11-21T05:58:47.077Z,0
2016-11-21T05:59:47.077Z,0
2016-11-21T06:00:46.826Z,0
2016-11-21T06:01:48.091Z,0
2016-11-21T06:02:47.197Z,0
2016-11-21T06:03:47.357Z,0
2016-11-21T06:04:46.489Z,0
2016-11-21T06:05:48.676Z,0
2016-11-21T06:06:46.546Z,0
2016-11-21T06:07:47.231Z,0
2016-11-21T06:08:46.820Z,0
2016-11-21T06:09:47.506Z,0
2016-11-21T06:10:46.862Z,0
2016-11-21T06:11:47.157Z,0
2016-11-21T06:12:47.222Z,0
2016-11-21T06:13:47.221Z,0
2016-11-21T06:14:47.173Z,0
2016-11-21T06:15:46.553Z,0
2016-11-21T06:16:48.275Z,0
2016-11-21T06:17:46.928Z,0
2016-11-21T06:18:46.569Z,0
2016-11-21T06:19:47.585Z,0
2016-11-21T06:20:46.950Z,0
2016-11-21T06:21:46.907Z,0
2016-11-21T06:22:46.953Z,0
2016-11-21T06:23:47.591Z,0
2016-11-21T06:24:47.545Z,0
2016-11-21T06:25:47.298Z,0
2016-11-21T06:26:47.291Z,0
2016-11-21T06:27:48.649Z,0
2016-11-21T06:28:47.043Z,0
2016-11-21T06:29:47.310Z,0
2016-11-21T06:30:47.582Z,0
2016-11-21T06:31:47.306Z,0
2016-11-21T06:32:47.691Z,0
2016-11-21T06:33:47.028Z,0
2016-11-21T06:34:46.976Z,0
2016-11-21T06:35:46.987Z,0
2016-11-21T06:36:47.302Z,0
2016-11-21T06:37:47.625Z,4
2016-11-21T06:38:48.509Z,4
2016-11-21T06:39:47.009Z,4
2016-11-21T06:40:47.382Z,4
2016-11-21T06:41:47.387Z,4
2016-11-21T06:42:47.031Z,4
2016-11-21T06:43:47.664Z,0
2016-11-21T06:44:47.094Z,0
2016-11-21T06:45:47.048Z,0
2016-11-21T06:46:47.467Z,4
2016-11-21T06:47:47.423Z,4
2016-11-21T06:48:47.378Z,4
2016-11-21T06:49:48.500Z,4
2016-11-21T06:50:47.442Z,4
2016-11-21T06:51:47.407Z,4
2016-11-21T06:52:46.773Z,8
2016-11-21T06:53:47.034Z,4
2016-11-21T06:54:47.732Z,4
2016-11-21T06:55:47.109Z,4
2016-11-21T06:56:47.118Z,4
2016-11-21T06:57:47.735Z,8
2016-11-21T06:58:47.181Z,8
2016-11-21T06:59:47.131Z,4
2016-11-21T07:00:48.258Z,4
2016-11-21T07:01:47.152Z,8
2016-11-21T07:02:47.154Z,8
2016-11-21T07:03:47.212Z,12
2016-11-21T07:04:47.214Z,12
2016-11-21T07:05:47.478Z,8
2016-11-21T07:06:47.489Z,12
2016-11-21T07:07:46.919Z,16
2016-11-21T07:08:46.874Z,12
2016-11-21T07:09:47.191Z,12
2016-11-21T07:10:47.876Z,16
2016-11-21T07:11:48.374Z,20
2016-11-21T07:12:47.526Z,20
2016-11-21T07:13:47.229Z,20
2016-11-21T07:14:47.539Z,24
2016-11-21T07:15:47.855Z,24
2016-11-21T07:16:47.557Z,24
2016-11-21T07:17:47.296Z,28
2016-11-21T07:18:47.351Z,32
2016-11-21T07:19:47.256Z,36
2016-11-21T07:20:47.571Z,36
2016-11-21T07:21:46.980Z,40
2016-11-21T07:22:47.676Z,44
2016-11-21T07:23:47.279Z,44
2016-11-21T07:24:47.390Z,52
2016-11-21T07:25:47.973Z,52
2016-11-21T07:26:48.312Z,56
2016-11-21T07:27:47.717Z,56
2016-11-21T07:28:47.936Z,60
2016-11-21T07:29:47.670Z,64
2016-11-21T07:30:47.690Z,68
2016-11-21T07:31:47.696Z,72
2016-11-21T07:32:47.385Z,76
2016-11-21T07:33:47.541Z,72
2016-11-21T07:34:47.708Z,72
2016-11-21T07:35:47.356Z,68
2016-11-21T07:36:47.774Z,68
2016-11-21T07:37:48.091Z,64
2016-11-21T07:38:47.370Z,64
2016-11-21T07:39:47.688Z,60
2016-11-21T07:40:47.744Z,60
2016-11-21T07:41:47.442Z,60
2016-11-21T07:42:47.082Z,64
2016-11-21T07:43:47.812Z,60
2016-11-21T07:44:47.407Z,60
2016-11-21T07:45:47.463Z,64
2016-11-21T07:46:49.273Z,64
2016-11-21T07:47:47.847Z,64
2016-11-21T07:48:48.066Z,64
2016-11-21T07:49:47.445Z,64
2016-11-21T07:50:47.493Z,64
2016-11-21T07:51:47.504Z,68
2016-11-21T07:52:47.457Z,72
2016-11-21T07:53:47.775Z,76
2016-11-21T07:54:47.466Z,80
2016-11-21T07:55:47.791Z,84
2016-11-21T07:56:47.857Z,92
2016-11-21T07:57:49.089Z,100
2016-11-21T07:58:47.861Z,100
2016-11-21T07:59:47.912Z,104
2016-11-21T08:00:47.820Z,104
2016-11-21T08:01:47.536Z,104
2016-11-21T08:02:48.196Z,104
2016-11-21T08:03:47.839Z,100
2016-11-21T08:04:47.580Z,96
2016-11-21T08:05:47.848Z,92
2016-11-21T08:06:47.641Z,88
2016-11-21T08:07:47.648Z,88
2016-11-21T08:08:48.442Z,84
2016-11-21T08:09:48.318Z,84
2016-11-21T08:10:47.932Z,80
2016-11-21T08:11:47.886Z,80
2016-11-21T08:12:48.932Z,76
2016-11-21T08:13:47.585Z,80
2016-11-21T08:14:47.902Z,84
2016-11-21T08:15:47.288Z,92
2016-11-21T08:16:47.297Z,92
2016-11-21T08:17:47.741Z,100
2016-11-21T08:18:48.348Z,96
2016-11-21T08:19:48.282Z,100
2016-11-21T08:20:47.630Z,100
2016-11-21T08:21:47.325Z,104
2016-11-21T08:22:48.273Z,104
2016-11-21T08:23:48.919Z,112
2016-11-21T08:24:47.359Z,120
2016-11-21T08:25:47.766Z,128
2016-11-21T08:26:47.994Z,136
2016-11-21T08:27:48.034Z,144
2016-11-21T08:28:48.049Z,140
2016-11-21T08:29:47.743Z,140
2016-11-21T08:30:47.564Z,136
2016-11-21T08:31:47.707Z,132
2016-11-21T08:32:49.899Z,124
2016-11-21T08:33:47.558Z,124
2016-11-21T08:34:49.074Z,124
2016-11-21T08:35:48.404Z,124
2016-11-21T08:36:48.428Z,124
2016-11-21T08:37:48.053Z,128
2016-11-21T08:38:48.061Z,128
2016-11-21T08:39:48.117Z,132
2016-11-21T08:40:48.077Z,132
2016-11-21T08:41:48.697Z,136
2016-11-21T08:42:47.514Z,140
2016-11-21T08:43:47.832Z,144
2016-11-21T08:44:50.206Z,144
2016-11-21T08:45:48.448Z,144
2016-11-21T08:46:48.448Z,144
2016-11-21T08:47:48.173Z,144
2016-11-21T08:48:48.180Z,140
2016-11-21T08:49:47.820Z,140
2016-11-21T08:50:48.143Z,140
2016-11-21T08:51:47.848Z,140
2016-11-21T08:52:47.929Z,144
2016-11-21T08:53:48.214Z,148
2016-11-21T08:54:49.962Z,148
2016-11-21T08:55:48.168Z,152
2016-11-21T08:56:48.890Z,152
2016-11-21T08:57:47.612Z,152
2016-11-21T08:58:48.192Z,156
2016-11-21T08:59:48.202Z,160
2016-11-21T09:00:48.670Z,160
2016-11-21T09:01:47.950Z,156
2016-11-21T09:02:47.695Z,160
2016-11-21T09:03:48.229Z,160
2016-11-21T09:04:48.600Z,160
2016-11-21T09:05:47.663Z,160
2016-11-21T09:06:48.248Z,164
2016-11-21T09:07:48.575Z,160
2016-11-21T09:08:47.946Z,160
2016-11-21T09:09:49.224Z,164
2016-11-21T09:10:48.586Z,164
2016-11-21T09:11:47.969Z,168
2016-11-21T09:12:48.291Z,164
2016-11-21T09:13:48.653Z,164
2016-11-21T09:14:48.714Z,164
2016-11-21T09:15:48.318Z,168
2016-11-21T09:16:48.503Z,180
2016-11-21T09:17:48.009Z,192
2016-11-21T09:18:48.377Z,200
2016-11-21T09:19:48.336Z,196
2016-11-21T09:20:49.476Z,196
2016-11-21T09:21:48.406Z,188
2016-11-21T09:22:48.385Z,184
2016-11-21T09:23:48.096Z,176
2016-11-21T09:24:49.230Z,176
2016-11-21T09:25:48.442Z,196
2016-11-21T09:26:48.070Z,208
2016-11-21T09:27:48.749Z,208
2016-11-21T09:28:48.130Z,204
2016-11-21T09:29:48.089Z,204
2016-11-21T09:30:48.145Z,212
2016-11-21T09:31:49.277Z,228
2016-11-21T09:32:48.421Z,232
2016-11-21T09:33:48.480Z,232
2016-11-21T09:34:48.173Z,232
2016-11-21T09:35:48.442Z,228
2016-11-21T09:36:48.139Z,224
2016-11-21T09:37:48.143Z,224
2016-11-21T09:38:48.776Z,224
2016-11-21T09:39:48.851Z,228
2016-11-21T09:40:50.114Z,224
2016-11-21T09:41:48.793Z,224
2016-11-21T09:42:49.075Z,220
2016-11-21T09:43:48.856Z,220
2016-11-21T09:44:48.239Z,220
2016-11-21T09:45:48.820Z,220
2016-11-21T09:46:48.230Z,220
2016-11-21T09:47:48.258Z,220
2016-11-21T09:48:48.777Z,224
2016-11-21T09:49:48.537Z,224
2016-11-21T09:50:48.938Z,228
2016-11-21T09:51:49.717Z,220
2016-11-21T09:52:48.917Z,208
2016-11-21T09:53:48.698Z,200
2016-11-21T09:54:48.568Z,196
2016-11-21T09:55:48.263Z,180
2016-11-21T09:56:48.633Z,172
2016-11-21T09:57:48.380Z,156
2016-11-21T09:58:48.967Z,156
2016-11-21T09:59:48.606Z,156
2016-11-21T10:00:48.973Z,156
2016-11-21T10:01:48.927Z,156
2016-11-21T10:02:50.046Z,156
2016-11-21T10:03:48.315Z,160
2016-11-21T10:04:49.151Z,148
2016-11-21T10:05:48.334Z,164
2016-11-21T10:06:48.437Z,172
2016-11-21T10:07:48.755Z,176
2016-11-21T10:08:48.690Z,164
2016-11-21T10:09:48.043Z,192
2016-11-21T10:10:48.777Z,192
2016-11-21T10:11:48.423Z,208
2016-11-21T10:12:48.115Z,216
2016-11-21T10:13:48.381Z,212
2016-11-21T10:14:48.387Z,184
2016-11-21T10:15:48.908Z,188
2016-11-21T10:16:48.420Z,176
2016-11-21T10:17:50.260Z,180
2016-11-21T10:18:49.047Z,188
2016-11-21T10:19:48.472Z,208
2016-11-21T10:20:48.121Z,216
2016-11-21T10:21:48.436Z,264
2016-11-21T10:22:48.756Z,272
2016-11-21T10:23:49.075Z,304
2016-11-21T10:24:48.819Z,300
2016-11-21T10:25:48.878Z,328
2016-11-21T10:26:48.883Z,328
2016-11-21T10:27:48.477Z,324
2016-11-21T10:28:50.038Z,308
2016-11-21T10:29:48.804Z,304
2016-11-21T10:30:48.595Z,300
2016-11-21T10:31:49.251Z,300
2016-11-21T10:32:48.248Z,296
2016-11-21T10:33:48.867Z,272
2016-11-21T10:34:48.528Z,256
2016-11-21T10:35:48.580Z,240
2016-11-21T10:36:49.225Z,204
2016-11-21T10:37:48.858Z,220
2016-11-21T10:38:48.961Z,208
2016-11-21T10:39:49.808Z,232
2016-11-21T10:40:48.566Z,212
2016-11-21T10:41:48.885Z,236
2016-11-21T10:42:48.895Z,220
2016-11-21T10:43:48.684Z,240
2016-11-21T10:44:48.963Z,260
2016-11-21T10:45:49.227Z,260
2016-11-21T10:46:48.603Z,296
2016-11-21T10:47:48.616Z,300
2016-11-21T10:48:50.052Z,284
2016-11-21T10:49:48.993Z,284
2016-11-21T10:50:49.449Z,300
2016-11-21T10:51:49.004Z,308
2016-11-21T10:52:50.759Z,264
2016-11-21T10:53:48.964Z,260
2016-11-21T10:54:49.042Z,244
2016-11-21T10:55:48.666Z,232
2016-11-21T10:56:48.719Z,228
2016-11-21T10:57:48.734Z,228
2016-11-21T10:58:49.368Z,244
2016-11-21T10:59:48.696Z,236
2016-11-21T11:00:48.709Z,236
2016-11-21T11:01:49.332Z,244
2016-11-21T11:02:49.030Z,252
2016-11-21T11:03:50.349Z,252
2016-11-21T11:04:48.509Z,244
2016-11-21T11:05:49.049Z,260
2016-11-21T11:06:49.221Z,256
2016-11-21T11:07:49.063Z,264
2016-11-21T11:08:49.396Z,276
2016-11-21T11:09:49.081Z,284
2016-11-21T11:10:49.132Z,280
2016-11-21T11:11:48.831Z,284
2016-11-21T11:12:48.831Z,292
2016-11-21T11:13:48.529Z,280
2016-11-21T11:14:49.864Z,268
2016-11-21T11:15:48.808Z,260
2016-11-21T11:16:49.223Z,252
2016-11-21T11:17:48.816Z,228
2016-11-21T11:18:49.137Z,228
2016-11-21T11:19:48.884Z,228
2016-11-21T11:20:49.149Z,240
2016-11-21T11:21:49.152Z,248
2016-11-21T11:22:49.477Z,256
2016-11-21T11:23:48.905Z,252
2016-11-21T11:24:48.913Z,244
2016-11-21T11:25:49.428Z,276
2016-11-21T11:26:49.502Z,284
2016-11-21T11:27:48.572Z,280
2016-11-21T11:28:49.253Z,284
2016-11-21T11:29:49.272Z,308
2016-11-21T11:30:48.912Z,324
2016-11-21T11:31:48.962Z,324
2016-11-21T11:32:49.281Z,320
2016-11-21T11:33:49.245Z,304
2016-11-21T11:34:50.298Z,304
2016-11-21T11:35:49.255Z,300
2016-11-21T11:36:49.643Z,284
2016-11-21T11:37:49.007Z,292
2016-11-21T11:38:48.645Z,284
2016-11-21T11:39:49.278Z,288
2016-11-21T11:40:49.601Z,292
2016-11-21T11:41:49.028Z,320
2016-11-21T11:42:49.613Z,340
2016-11-21T11:43:48.993Z,360
2016-11-21T11:44:49.316Z,364
2016-11-21T11:45:49.347Z,388
2016-11-21T11:46:49.375Z,404
2016-11-21T11:47:49.432Z,424
2016-11-21T11:48:49.805Z,448
2016-11-21T11:49:50.489Z,464
2016-11-21T11:50:49.352Z,468
2016-11-21T11:51:49.050Z,460
2016-11-21T11:52:49.055Z,452
2016-11-21T11:53:49.380Z,444
2016-11-21T11:54:49.540Z,432
2016-11-21T11:55:49.124Z,436
2016-11-21T11:56:48.770Z,440
2016-11-21T11:57:49.723Z,448
2016-11-21T11:58:49.203Z,452
2016-11-21T11:59:49.417Z,452
2016-11-21T12:00:50.437Z,440
2016-11-21T12:01:49.170Z,436
2016-11-21T12:02:49.750Z,448
2016-11-21T12:03:49.180Z,460
2016-11-21T12:04:49.865Z,472
2016-11-21T12:05:49.771Z,492
2016-11-21T12:06:49.521Z,512
2016-11-21T12:07:49.211Z,524
2016-11-21T12:08:49.853Z,536
2016-11-21T12:09:49.176Z,552
2016-11-21T12:10:49.496Z,584
2016-11-21T12:11:50.142Z,620
2016-11-21T12:12:49.508Z,664
2016-11-21T12:13:49.567Z,716
2016-11-21T12:14:49.892Z,772
2016-11-21T12:15:49.214Z,824
2016-11-21T12:16:48.915Z,864
2016-11-21T12:17:49.694Z,896
2016-11-21T12:18:49.288Z,928
2016-11-21T12:19:48.979Z,952
2016-11-21T12:20:50.353Z,964
2016-11-21T12:21:49.678Z,980
2016-11-21T12:22:49.813Z,984
2016-11-21T12:23:49.896Z,996
2016-11-21T12:24:51.015Z,996
2016-11-21T12:25:49.334Z,988
2016-11-21T12:26:49.918Z,976
2016-11-21T12:27:49.348Z,960
2016-11-21T12:28:49.456Z,948
2016-11-21T12:29:49.622Z,928
2016-11-21T12:30:49.955Z,908
2016-11-21T12:31:49.642Z,888
2016-11-21T12:32:50.040Z,868
2016-11-21T12:33:49.710Z,840
2016-11-21T12:34:49.674Z,808
2016-11-21T12:35:50.491Z,776
2016-11-21T12:36:49.410Z,760
2016-11-21T12:37:49.680Z,748
2016-11-21T12:38:50.009Z,728
2016-11-21T12:39:49.743Z,720
2016-11-21T12:40:49.753Z,720
2016-11-21T12:41:49.398Z,712
2016-11-21T12:42:49.715Z,696
2016-11-21T12:43:49.458Z,676
2016-11-21T12:45:20.395Z,660
2016-11-21T12:45:50.197Z,656
2016-11-21T12:46:50.535Z,660
2016-11-21T12:47:49.751Z,668
2016-11-21T12:48:49.753Z,672
2016-11-21T12:49:49.769Z,668
2016-11-21T12:50:49.464Z,664
2016-11-21T12:51:49.518Z,656
2016-11-21T12:52:49.837Z,636
2016-11-21T12:53:49.527Z,608
2016-11-21T12:54:49.170Z,580
2016-11-21T12:55:50.913Z,536
2016-11-21T12:56:49.910Z,488
2016-11-21T12:57:50.169Z,428
2016-11-21T12:58:49.878Z,404
2016-11-21T12:59:50.855Z,372
2016-11-21T13:00:50.207Z,352
2016-11-21T13:01:49.846Z,308
2016-11-21T13:02:49.856Z,296
2016-11-21T13:03:49.599Z,288
2016-11-21T13:04:50.273Z,300
2016-11-21T13:05:49.713Z,288
2016-11-21T13:06:50.371Z,300
2016-11-21T13:07:49.581Z,308
2016-11-21T13:08:49.999Z,312
2016-11-21T13:09:49.953Z,308
2016-11-21T13:10:51.388Z,300
2016-11-21T13:11:49.606Z,292
2016-11-21T13:12:49.298Z,304
2016-11-21T13:13:49.933Z,288
2016-11-21T13:14:49.676Z,292
2016-11-21T13:15:49.636Z,300
2016-11-21T13:16:50.003Z,344
2016-11-21T13:17:50.346Z,356
2016-11-21T13:18:49.651Z,348
2016-11-21T13:19:49.450Z,336
2016-11-21T13:20:50.346Z,300
2016-11-21T13:21:50.716Z,276
2016-11-21T13:22:50.003Z,256
2016-11-21T13:23:50.047Z,252
2016-11-21T13:24:50.057Z,252
2016-11-21T13:25:49.751Z,236
2016-11-21T13:26:50.070Z,220
2016-11-21T13:27:50.060Z,208
2016-11-21T13:28:49.774Z,200
2016-11-21T13:29:50.409Z,204
2016-11-21T13:30:50.097Z,188
2016-11-21T13:31:50.110Z,192
2016-11-21T13:32:50.725Z,196
2016-11-21T13:33:50.116Z,204
2016-11-21T13:34:50.132Z,212
2016-11-21T13:35:50.181Z,216
2016-11-21T13:36:50.190Z,212
2016-11-21T13:37:49.813Z,204
2016-11-21T13:38:50.468Z,200
2016-11-21T13:39:49.847Z,192
2016-11-21T13:40:50.118Z,184
2016-11-21T13:41:51.639Z,172
2016-11-21T13:42:49.871Z,172
2016-11-21T13:43:50.212Z,176
2016-11-21T13:44:49.893Z,172
2016-11-21T13:45:49.940Z,180
2016-11-21T13:46:50.215Z,188
2016-11-21T13:47:49.855Z,204
2016-11-21T13:48:50.182Z,140
2016-11-21T13:49:50.544Z,144
2016-11-21T13:50:50.546Z,136
2016-11-21T13:51:50.246Z,152
2016-11-21T13:52:50.426Z,144
2016-11-21T13:53:50.584Z,148
2016-11-21T13:54:50.270Z,164
2016-11-21T13:55:49.959Z,188
2016-11-21T13:56:51.609Z,232
2016-11-21T13:57:49.924Z,192
2016-11-21T13:58:49.619Z,168
2016-11-21T13:59:50.253Z,164
2016-11-21T14:00:49.994Z,144
2016-11-21T14:01:50.262Z,144
2016-11-21T14:02:50.321Z,120
2016-11-21T14:03:50.274Z,116
2016-11-21T14:04:49.663Z,96
2016-11-21T14:05:50.339Z,92
2016-11-21T14:06:50.400Z,104
2016-11-21T14:07:51.608Z,96
2016-11-21T14:08:50.351Z,104
2016-11-21T14:09:50.690Z,120
2016-11-21T14:10:50.641Z,116
2016-11-21T14:11:50.025Z,128
2016-11-21T14:12:50.400Z,136
2016-11-21T14:13:50.076Z,152
2016-11-21T14:14:50.147Z,168
2016-11-21T14:15:50.100Z,180
2016-11-21T14:16:50.547Z,188
2016-11-21T14:17:50.067Z,184